sensor_id;sensor_type;location;lat;lon;timestamp;temperature;humidity
5086;DHT22;4715;51.660;7.082;2024-02-15T00:01:34;12.20;99.90
5086;DHT22;4715;51.660;7.082;2024-02-15T00:03:56;12.30;99.90
5086;DHT22;4715;51.660;7.082;2024-02-15T00:06:19;12.30;99.90
5086;DHT22;4715;51.660;7.082;2024-02-15T00:08:41;12.30;99.90
5086;DHT22;4715;51.660;7.082;2024-02-15T00:11:05;12.30;99.90
5086;DHT22;4715;51.660;7.082;2024-02-15T00:13:26;12.30;99.90
5086;DHT22;4715;51.660;7.082;2024-02-15T00:15:48;12.30;99.90
5086;DHT22;4715;51.660;7.082;2024-02-15T00:18:10;12.30;99.90
5086;DHT22;4715;51.660;7.082;2024-02-15T00:20:32;12.30;99.90
5086;DHT22;4715;51.660;7.082;2024-02-15T00:22:55;12.30;99.90
5086;DHT22;4715;51.660;7.082;2024-02-15T00:25:17;12.30;99.90
5086;DHT22;4715;51.660;7.082;2024-02-15T00:27:40;12.30;99.90
5086;DHT22;4715;51.660;7.082;2024-02-15T00:30:04;12.30;99.90
5086;DHT22;4715;51.660;7.082;2024-02-15T00:32:27;12.30;99.90
5086;DHT22;4715;51.660;7.082;2024-02-15T00:34:50;12.20;99.90
5086;DHT22;4715;51.660;7.082;2024-02-15T00:37:12;12.20;99.90
5086;DHT22;4715;51.660;7.082;2024-02-15T00:39:36;12.20;99.90
5086;DHT22;4715;51.660;7.082;2024-02-15T00:41:57;12.20;99.90
5086;DHT22;4715;51.660;7.082;2024-02-15T00:44:23;12.20;99.90
5086;DHT22;4715;51.660;7.082;2024-02-15T00:46:45;12.20;99.90
5086;DHT22;4715;51.660;7.082;2024-02-15T00:49:08;12.20;99.90
5086;DHT22;4715;51.660;7.082;2024-02-15T00:51:30;12.20;99.90
5086;DHT22;4715;51.660;7.082;2024-02-15T00:53:53;12.20;99.90
5086;DHT22;4715;51.660;7.082;2024-02-15T00:56:16;12.20;99.90
5086;DHT22;4715;51.660;7.082;2024-02-15T00:58:38;12.30;99.90
5086;DHT22;4715;51.660;7.082;2024-02-15T01:01:00;12.30;99.90
5086;DHT22;4715;51.660;7.082;2024-02-15T01:03:22;12.30;99.90
5086;DHT22;4715;51.660;7.082;2024-02-15T01:05:44;12.30;99.90
5086;DHT22;4715;51.660;7.082;2024-02-15T01:08:06;12.30;99.90
5086;DHT22;4715;51.660;7.082;2024-02-15T01:10:29;12.30;99.90
5086;DHT22;4715;51.660;7.082;2024-02-15T01:12:52;12.30;99.90
5086;DHT22;4715;51.660;7.082;2024-02-15T01:15:14;12.30;99.90
5086;DHT22;4715;51.660;7.082;2024-02-15T01:17:38;12.30;99.90
5086;DHT22;4715;51.660;7.082;2024-02-15T01:20:01;12.30;99.90
5086;DHT22;4715;51.660;7.082;2024-02-15T01:22:24;12.30;99.90
5086;DHT22;4715;51.660;7.082;2024-02-15T01:24:47;12.30;99.90
5086;DHT22;4715;51.660;7.082;2024-02-15T01:27:09;12.30;99.90
5086;DHT22;4715;51.660;7.082;2024-02-15T01:29:32;12.30;99.90
5086;DHT22;4715;51.660;7.082;2024-02-15T01:31:55;12.30;99.90
5086;DHT22;4715;51.660;7.082;2024-02-15T01:34:16;12.40;99.90
5086;DHT22;4715;51.660;7.082;2024-02-15T01:36:38;12.40;99.90
5086;DHT22;4715;51.660;7.082;2024-02-15T01:39:00;12.40;99.90
5086;DHT22;4715;51.660;7.082;2024-02-15T01:41:22;12.40;99.90
5086;DHT22;4715;51.660;7.082;2024-02-15T01:43:44;12.40;99.90
5086;DHT22;4715;51.660;7.082;2024-02-15T01:46:09;12.40;99.90
5086;DHT22;4715;51.660;7.082;2024-02-15T01:48:32;12.40;99.90
5086;DHT22;4715;51.660;7.082;2024-02-15T01:50:54;12.40;99.90
5086;DHT22;4715;51.660;7.082;2024-02-15T01:53:16;12.40;99.90
5086;DHT22;4715;51.660;7.082;2024-02-15T01:55:38;12.40;99.90
5086;DHT22;4715;51.660;7.082;2024-02-15T01:58:01;12.40;99.90
5086;DHT22;4715;51.660;7.082;2024-02-15T02:00:23;12.40;99.90
5086;DHT22;4715;51.660;7.082;2024-02-15T02:02:49;12.50;99.90
5086;DHT22;4715;51.660;7.082;2024-02-15T02:05:12;12.50;99.90
5086;DHT22;4715;51.660;7.082;2024-02-15T02:07:33;12.50;99.90
5086;DHT22;4715;51.660;7.082;2024-02-15T02:09:56;12.50;99.90
5086;DHT22;4715;51.660;7.082;2024-02-15T02:12:18;12.50;99.90
5086;DHT22;4715;51.660;7.082;2024-02-15T02:14:39;12.50;99.90
5086;DHT22;4715;51.660;7.082;2024-02-15T02:17:11;12.50;99.90
5086;DHT22;4715;51.660;7.082;2024-02-15T02:19:35;12.50;99.90
5086;DHT22;4715;51.660;7.082;2024-02-15T02:21:59;12.50;99.90
5086;DHT22;4715;51.660;7.082;2024-02-15T02:24:22;12.50;99.90
5086;DHT22;4715;51.660;7.082;2024-02-15T02:26:45;12.50;99.90
5086;DHT22;4715;51.660;7.082;2024-02-15T02:29:08;12.50;99.90
5086;DHT22;4715;51.660;7.082;2024-02-15T02:31:33;12.50;99.90
5086;DHT22;4715;51.660;7.082;2024-02-15T02:33:56;12.50;99.90
5086;DHT22;4715;51.660;7.082;2024-02-15T02:36:19;12.40;99.90
5086;DHT22;4715;51.660;7.082;2024-02-15T02:38:43;12.40;99.90
5086;DHT22;4715;51.660;7.082;2024-02-15T02:41:05;12.40;99.90
5086;DHT22;4715;51.660;7.082;2024-02-15T02:43:31;12.40;99.90
5086;DHT22;4715;51.660;7.082;2024-02-15T02:45:53;12.40;99.90
5086;DHT22;4715;51.660;7.082;2024-02-15T02:48:14;12.40;99.90
5086;DHT22;4715;51.660;7.082;2024-02-15T02:50:38;12.40;99.90
5086;DHT22;4715;51.660;7.082;2024-02-15T02:52:59;12.40;99.90
5086;DHT22;4715;51.660;7.082;2024-02-15T02:55:22;12.40;99.90
5086;DHT22;4715;51.660;7.082;2024-02-15T02:57:45;12.40;99.90
5086;DHT22;4715;51.660;7.082;2024-02-15T03:00:11;12.40;99.90
5086;DHT22;4715;51.660;7.082;2024-02-15T03:02:34;12.40;99.90
5086;DHT22;4715;51.660;7.082;2024-02-15T03:04:56;12.40;99.90
5086;DHT22;4715;51.660;7.082;2024-02-15T03:07:22;12.40;99.90
5086;DHT22;4715;51.660;7.082;2024-02-15T03:09:44;12.40;99.90
5086;DHT22;4715;51.660;7.082;2024-02-15T03:12:07;12.40;99.90
5086;DHT22;4715;51.660;7.082;2024-02-15T03:14:31;12.40;99.90
5086;DHT22;4715;51.660;7.082;2024-02-15T03:16:57;12.40;99.90
5086;DHT22;4715;51.660;7.082;2024-02-15T03:19:19;12.40;99.90
5086;DHT22;4715;51.660;7.082;2024-02-15T03:21:42;12.40;99.90
5086;DHT22;4715;51.660;7.082;2024-02-15T03:24:07;12.40;99.90
5086;DHT22;4715;51.660;7.082;2024-02-15T03:26:30;12.40;99.90
5086;DHT22;4715;51.660;7.082;2024-02-15T03:28:55;12.40;99.90
5086;DHT22;4715;51.660;7.082;2024-02-15T03:31:16;12.40;99.90
5086;DHT22;4715;51.660;7.082;2024-02-15T03:33:40;12.50;99.90
5086;DHT22;4715;51.660;7.082;2024-02-15T03:36:02;12.50;99.90
5086;DHT22;4715;51.660;7.082;2024-02-15T03:38:25;12.50;99.90
5086;DHT22;4715;51.660;7.082;2024-02-15T03:40:47;12.50;99.90
5086;DHT22;4715;51.660;7.082;2024-02-15T03:43:09;12.40;99.90
5086;DHT22;4715;51.660;7.082;2024-02-15T03:45:32;12.50;99.90
5086;DHT22;4715;51.660;7.082;2024-02-15T03:47:54;12.50;99.90
5086;DHT22;4715;51.660;7.082;2024-02-15T03:50:17;12.50;99.90
5086;DHT22;4715;51.660;7.082;2024-02-15T03:52:42;12.50;99.90
5086;DHT22;4715;51.660;7.082;2024-02-15T03:55:05;12.50;99.90
5086;DHT22;4715;51.660;7.082;2024-02-15T03:57:28;12.50;99.90
5086;DHT22;4715;51.660;7.082;2024-02-15T03:59:50;12.50;99.90
5086;DHT22;4715;51.660;7.082;2024-02-15T04:02:14;12.50;99.90
5086;DHT22;4715;51.660;7.082;2024-02-15T04:04:39;12.50;99.90
5086;DHT22;4715;51.660;7.082;2024-02-15T04:07:04;12.50;99.90
5086;DHT22;4715;51.660;7.082;2024-02-15T04:09:26;12.50;99.90
5086;DHT22;4715;51.660;7.082;2024-02-15T04:11:48;12.50;99.90
5086;DHT22;4715;51.660;7.082;2024-02-15T04:14:16;12.50;99.90
5086;DHT22;4715;51.660;7.082;2024-02-15T04:16:39;12.50;99.90
5086;DHT22;4715;51.660;7.082;2024-02-15T04:19:00;12.50;99.90
5086;DHT22;4715;51.660;7.082;2024-02-15T04:21:26;12.50;99.90
5086;DHT22;4715;51.660;7.082;2024-02-15T04:23:49;12.50;99.90
5086;DHT22;4715;51.660;7.082;2024-02-15T04:26:12;12.50;99.90
5086;DHT22;4715;51.660;7.082;2024-02-15T04:28:34;12.50;99.90
5086;DHT22;4715;51.660;7.082;2024-02-15T04:30:57;12.50;99.90
5086;DHT22;4715;51.660;7.082;2024-02-15T04:33:18;12.60;99.90
5086;DHT22;4715;51.660;7.082;2024-02-15T04:35:40;12.60;99.90
5086;DHT22;4715;51.660;7.082;2024-02-15T04:38:02;12.60;99.90
5086;DHT22;4715;51.660;7.082;2024-02-15T04:40:25;12.60;99.90
5086;DHT22;4715;51.660;7.082;2024-02-15T04:42:47;12.60;99.90
5086;DHT22;4715;51.660;7.082;2024-02-15T04:45:09;12.60;99.90
5086;DHT22;4715;51.660;7.082;2024-02-15T04:47:31;12.60;99.90
5086;DHT22;4715;51.660;7.082;2024-02-15T04:49:53;12.60;99.90
5086;DHT22;4715;51.660;7.082;2024-02-15T04:52:18;12.60;99.90
5086;DHT22;4715;51.660;7.082;2024-02-15T04:54:44;12.60;99.90
5086;DHT22;4715;51.660;7.082;2024-02-15T04:57:07;12.60;99.90
5086;DHT22;4715;51.660;7.082;2024-02-15T04:59:32;12.60;99.90
5086;DHT22;4715;51.660;7.082;2024-02-15T05:01:54;12.60;99.90
5086;DHT22;4715;51.660;7.082;2024-02-15T05:04:16;12.60;99.90
5086;DHT22;4715;51.660;7.082;2024-02-15T05:06:38;12.60;99.90
5086;DHT22;4715;51.660;7.082;2024-02-15T05:09:00;12.60;99.90
5086;DHT22;4715;51.660;7.082;2024-02-15T05:11:27;12.60;99.90
5086;DHT22;4715;51.660;7.082;2024-02-15T05:13:51;12.70;99.90
5086;DHT22;4715;51.660;7.082;2024-02-15T05:16:13;12.70;99.90
5086;DHT22;4715;51.660;7.082;2024-02-15T05:18:35;12.70;99.90
5086;DHT22;4715;51.660;7.082;2024-02-15T05:20:57;12.70;99.90
5086;DHT22;4715;51.660;7.082;2024-02-15T05:23:18;12.70;99.90
5086;DHT22;4715;51.660;7.082;2024-02-15T05:25:41;12.70;99.90
5086;DHT22;4715;51.660;7.082;2024-02-15T05:28:05;12.70;99.90
5086;DHT22;4715;51.660;7.082;2024-02-15T05:30:30;12.70;99.90
5086;DHT22;4715;51.660;7.082;2024-02-15T05:32:53;12.70;99.90
5086;DHT22;4715;51.660;7.082;2024-02-15T05:35:15;12.70;99.90
5086;DHT22;4715;51.660;7.082;2024-02-15T05:37:38;12.70;99.90
5086;DHT22;4715;51.660;7.082;2024-02-15T05:40:03;12.70;99.90
5086;DHT22;4715;51.660;7.082;2024-02-15T05:42:25;12.70;99.90
5086;DHT22;4715;51.660;7.082;2024-02-15T05:44:48;12.70;99.90
5086;DHT22;4715;51.660;7.082;2024-02-15T05:47:12;12.70;99.90
5086;DHT22;4715;51.660;7.082;2024-02-15T05:49:34;12.70;99.90
5086;DHT22;4715;51.660;7.082;2024-02-15T05:51:59;12.70;99.90
5086;DHT22;4715;51.660;7.082;2024-02-15T05:54:24;12.70;99.90
5086;DHT22;4715;51.660;7.082;2024-02-15T05:56:45;12.80;99.90
5086;DHT22;4715;51.660;7.082;2024-02-15T05:59:12;12.80;99.90
5086;DHT22;4715;51.660;7.082;2024-02-15T06:01:36;12.80;99.90
5086;DHT22;4715;51.660;7.082;2024-02-15T06:04:03;12.80;99.90
5086;DHT22;4715;51.660;7.082;2024-02-15T06:06:28;12.80;99.90
5086;DHT22;4715;51.660;7.082;2024-02-15T06:08:50;12.80;99.90
5086;DHT22;4715;51.660;7.082;2024-02-15T06:11:12;12.80;99.90
5086;DHT22;4715;51.660;7.082;2024-02-15T06:13:35;12.80;99.90
5086;DHT22;4715;51.660;7.082;2024-02-15T06:15:57;12.80;99.90
5086;DHT22;4715;51.660;7.082;2024-02-15T06:18:19;12.80;99.90
5086;DHT22;4715;51.660;7.082;2024-02-15T06:20:46;12.80;99.90
5086;DHT22;4715;51.660;7.082;2024-02-15T06:23:09;12.90;99.90
5086;DHT22;4715;51.660;7.082;2024-02-15T06:25:31;12.80;99.90
5086;DHT22;4715;51.660;7.082;2024-02-15T06:27:53;12.80;99.90
5086;DHT22;4715;51.660;7.082;2024-02-15T06:30:22;12.80;99.90
5086;DHT22;4715;51.660;7.082;2024-02-15T06:33:01;12.80;99.90
5086;DHT22;4715;51.660;7.082;2024-02-15T06:35:40;12.80;99.90
5086;DHT22;4715;51.660;7.082;2024-02-15T06:38:21;12.90;99.90
5086;DHT22;4715;51.660;7.082;2024-02-15T06:41:01;12.90;99.90
5086;DHT22;4715;51.660;7.082;2024-02-15T06:43:24;12.80;99.90
5086;DHT22;4715;51.660;7.082;2024-02-15T06:45:45;12.90;99.90
5086;DHT22;4715;51.660;7.082;2024-02-15T06:48:08;12.90;99.90
5086;DHT22;4715;51.660;7.082;2024-02-15T06:50:29;12.90;99.90
5086;DHT22;4715;51.660;7.082;2024-02-15T06:52:54;12.80;99.90
5086;DHT22;4715;51.660;7.082;2024-02-15T06:55:18;12.80;99.90
5086;DHT22;4715;51.660;7.082;2024-02-15T06:57:42;12.80;99.90
5086;DHT22;4715;51.660;7.082;2024-02-15T07:00:09;12.80;99.90
5086;DHT22;4715;51.660;7.082;2024-02-15T07:02:35;12.70;99.90
5086;DHT22;4715;51.660;7.082;2024-02-15T07:04:57;12.70;99.90
5086;DHT22;4715;51.660;7.082;2024-02-15T07:07:19;12.70;99.90
5086;DHT22;4715;51.660;7.082;2024-02-15T07:09:42;12.60;99.90
5086;DHT22;4715;51.660;7.082;2024-02-15T07:12:06;12.60;99.90
5086;DHT22;4715;51.660;7.082;2024-02-15T07:14:28;12.60;99.90
5086;DHT22;4715;51.660;7.082;2024-02-15T07:16:52;12.60;99.90
5086;DHT22;4715;51.660;7.082;2024-02-15T07:19:19;12.60;99.90
5086;DHT22;4715;51.660;7.082;2024-02-15T07:21:41;12.50;99.90
5086;DHT22;4715;51.660;7.082;2024-02-15T07:24:05;12.50;99.90
5086;DHT22;4715;51.660;7.082;2024-02-15T07:26:28;12.50;99.90
5086;DHT22;4715;51.660;7.082;2024-02-15T07:28:52;12.50;99.90
5086;DHT22;4715;51.660;7.082;2024-02-15T07:31:15;12.50;99.90
5086;DHT22;4715;51.660;7.082;2024-02-15T07:33:36;12.50;99.90
5086;DHT22;4715;51.660;7.082;2024-02-15T07:36:03;12.40;99.90
5086;DHT22;4715;51.660;7.082;2024-02-15T07:38:25;12.50;99.90
5086;DHT22;4715;51.660;7.082;2024-02-15T07:40:47;12.50;99.90
5086;DHT22;4715;51.660;7.082;2024-02-15T07:43:12;12.50;99.90
5086;DHT22;4715;51.660;7.082;2024-02-15T07:45:35;12.50;99.90
5086;DHT22;4715;51.660;7.082;2024-02-15T07:47:57;12.50;99.90
5086;DHT22;4715;51.660;7.082;2024-02-15T07:50:19;12.40;99.90
5086;DHT22;4715;51.660;7.082;2024-02-15T07:52:43;12.40;99.90
5086;DHT22;4715;51.660;7.082;2024-02-15T07:55:05;12.40;99.90
5086;DHT22;4715;51.660;7.082;2024-02-15T07:57:29;12.40;99.90
5086;DHT22;4715;51.660;7.082;2024-02-15T07:59:51;12.50;99.90
5086;DHT22;4715;51.660;7.082;2024-02-15T08:02:15;12.40;99.90
5086;DHT22;4715;51.660;7.082;2024-02-15T08:04:42;12.40;99.90
5086;DHT22;4715;51.660;7.082;2024-02-15T08:07:05;12.40;99.90
5086;DHT22;4715;51.660;7.082;2024-02-15T08:09:31;12.40;99.90
5086;DHT22;4715;51.660;7.082;2024-02-15T08:11:52;12.40;99.90
5086;DHT22;4715;51.660;7.082;2024-02-15T08:14:16;12.40;99.90
5086;DHT22;4715;51.660;7.082;2024-02-15T08:16:38;12.40;99.90
5086;DHT22;4715;51.660;7.082;2024-02-15T08:19:02;12.40;99.90
5086;DHT22;4715;51.660;7.082;2024-02-15T08:21:26;12.50;99.90
5086;DHT22;4715;51.660;7.082;2024-02-15T08:23:49;12.50;99.90
5086;DHT22;4715;51.660;7.082;2024-02-15T08:26:11;12.50;99.90
5086;DHT22;4715;51.660;7.082;2024-02-15T08:28:33;12.50;99.90
5086;DHT22;4715;51.660;7.082;2024-02-15T08:30:55;12.50;99.90
5086;DHT22;4715;51.660;7.082;2024-02-15T08:33:18;12.50;99.90
5086;DHT22;4715;51.660;7.082;2024-02-15T08:35:41;12.60;99.90
5086;DHT22;4715;51.660;7.082;2024-02-15T08:38:04;12.60;99.90
5086;DHT22;4715;51.660;7.082;2024-02-15T08:40:27;12.60;99.90
5086;DHT22;4715;51.660;7.082;2024-02-15T08:42:49;12.60;99.90
5086;DHT22;4715;51.660;7.082;2024-02-15T08:45:11;12.60;99.90
5086;DHT22;4715;51.660;7.082;2024-02-15T08:47:36;12.60;99.90
5086;DHT22;4715;51.660;7.082;2024-02-15T08:49:59;12.60;99.90
5086;DHT22;4715;51.660;7.082;2024-02-15T08:52:22;12.60;99.90
5086;DHT22;4715;51.660;7.082;2024-02-15T08:54:50;12.70;99.90
5086;DHT22;4715;51.660;7.082;2024-02-15T08:57:11;12.60;99.90
5086;DHT22;4715;51.660;7.082;2024-02-15T08:59:33;12.70;99.90
5086;DHT22;4715;51.660;7.082;2024-02-15T09:01:55;12.60;99.90
5086;DHT22;4715;51.660;7.082;2024-02-15T09:04:17;12.60;99.90
5086;DHT22;4715;51.660;7.082;2024-02-15T09:06:39;12.60;99.90
5086;DHT22;4715;51.660;7.082;2024-02-15T09:09:02;12.60;99.90
5086;DHT22;4715;51.660;7.082;2024-02-15T09:11:28;12.60;99.90
5086;DHT22;4715;51.660;7.082;2024-02-15T09:13:50;12.50;99.90
5086;DHT22;4715;51.660;7.082;2024-02-15T09:16:12;12.50;99.90
5086;DHT22;4715;51.660;7.082;2024-02-15T09:18:34;12.50;99.90
5086;DHT22;4715;51.660;7.082;2024-02-15T09:20:56;12.50;99.90
5086;DHT22;4715;51.660;7.082;2024-02-15T09:23:21;12.50;99.90
5086;DHT22;4715;51.660;7.082;2024-02-15T09:25:45;12.50;99.90
5086;DHT22;4715;51.660;7.082;2024-02-15T09:28:10;12.50;99.90
5086;DHT22;4715;51.660;7.082;2024-02-15T09:30:32;12.60;99.90
5086;DHT22;4715;51.660;7.082;2024-02-15T09:32:55;12.50;99.90
5086;DHT22;4715;51.660;7.082;2024-02-15T09:35:18;12.50;99.90
5086;DHT22;4715;51.660;7.082;2024-02-15T09:37:45;12.60;99.90
5086;DHT22;4715;51.660;7.082;2024-02-15T09:40:10;12.60;99.90
5086;DHT22;4715;51.660;7.082;2024-02-15T09:42:35;12.60;99.90
5086;DHT22;4715;51.660;7.082;2024-02-15T09:44:56;12.70;99.90
5086;DHT22;4715;51.660;7.082;2024-02-15T09:47:19;12.70;99.90
5086;DHT22;4715;51.660;7.082;2024-02-15T09:49:41;12.70;99.90
5086;DHT22;4715;51.660;7.082;2024-02-15T09:52:04;12.70;99.90
5086;DHT22;4715;51.660;7.082;2024-02-15T09:54:29;12.80;99.90
5086;DHT22;4715;51.660;7.082;2024-02-15T09:56:51;12.80;99.90
5086;DHT22;4715;51.660;7.082;2024-02-15T09:59:16;12.80;99.90
5086;DHT22;4715;51.660;7.082;2024-02-15T10:01:39;12.90;99.90
5086;DHT22;4715;51.660;7.082;2024-02-15T10:04:04;12.90;99.90
5086;DHT22;4715;51.660;7.082;2024-02-15T10:06:27;12.90;99.90
5086;DHT22;4715;51.660;7.082;2024-02-15T10:08:52;12.90;99.90
5086;DHT22;4715;51.660;7.082;2024-02-15T10:11:15;12.90;99.90
5086;DHT22;4715;51.660;7.082;2024-02-15T10:13:37;13.00;99.90
5086;DHT22;4715;51.660;7.082;2024-02-15T10:16:14;13.00;99.90
5086;DHT22;4715;51.660;7.082;2024-02-15T10:18:36;13.00;99.90
5086;DHT22;4715;51.660;7.082;2024-02-15T10:20:59;13.00;99.90
5086;DHT22;4715;51.660;7.082;2024-02-15T10:23:21;13.00;99.90
5086;DHT22;4715;51.660;7.082;2024-02-15T10:25:43;13.00;99.90
5086;DHT22;4715;51.660;7.082;2024-02-15T10:28:06;13.10;99.90
5086;DHT22;4715;51.660;7.082;2024-02-15T10:30:29;13.10;99.90
5086;DHT22;4715;51.660;7.082;2024-02-15T10:32:54;13.20;99.90
5086;DHT22;4715;51.660;7.082;2024-02-15T10:35:20;13.10;99.90
5086;DHT22;4715;51.660;7.082;2024-02-15T10:37:42;13.20;99.90
5086;DHT22;4715;51.660;7.082;2024-02-15T10:40:07;13.20;99.90
5086;DHT22;4715;51.660;7.082;2024-02-15T10:42:30;13.20;99.90
5086;DHT22;4715;51.660;7.082;2024-02-15T10:44:52;13.20;99.90
5086;DHT22;4715;51.660;7.082;2024-02-15T10:47:15;13.20;99.90
5086;DHT22;4715;51.660;7.082;2024-02-15T10:49:40;13.20;99.90
5086;DHT22;4715;51.660;7.082;2024-02-15T10:52:02;13.20;99.90
5086;DHT22;4715;51.660;7.082;2024-02-15T10:54:40;13.20;99.90
5086;DHT22;4715;51.660;7.082;2024-02-15T10:57:05;13.30;99.90
5086;DHT22;4715;51.660;7.082;2024-02-15T10:59:32;13.30;99.90
5086;DHT22;4715;51.660;7.082;2024-02-15T11:01:59;13.30;99.90
5086;DHT22;4715;51.660;7.082;2024-02-15T11:04:27;13.40;99.90
5086;DHT22;4715;51.660;7.082;2024-02-15T11:06:55;13.40;99.90
5086;DHT22;4715;51.660;7.082;2024-02-15T11:09:18;13.40;99.90
5086;DHT22;4715;51.660;7.082;2024-02-15T11:11:40;13.50;99.90
5086;DHT22;4715;51.660;7.082;2024-02-15T11:14:25;13.50;99.90
5086;DHT22;4715;51.660;7.082;2024-02-15T11:16:46;13.60;99.90
5086;DHT22;4715;51.660;7.082;2024-02-15T11:19:08;13.60;99.90
5086;DHT22;4715;51.660;7.082;2024-02-15T11:21:56;13.60;99.90
5086;DHT22;4715;51.660;7.082;2024-02-15T11:24:27;13.70;99.90
5086;DHT22;4715;51.660;7.082;2024-02-15T11:26:49;13.70;99.90
5086;DHT22;4715;51.660;7.082;2024-02-15T11:32:09;13.80;99.90
5086;DHT22;4715;51.660;7.082;2024-02-15T11:34:42;13.80;99.90
5086;DHT22;4715;51.660;7.082;2024-02-15T11:37:07;13.90;99.90
5086;DHT22;4715;51.660;7.082;2024-02-15T11:39:42;13.90;99.90
5086;DHT22;4715;51.660;7.082;2024-02-15T11:42:25;13.90;99.90
5086;DHT22;4715;51.660;7.082;2024-02-15T11:44:49;13.90;99.90
5086;DHT22;4715;51.660;7.082;2024-02-15T11:47:11;14.00;99.90
5086;DHT22;4715;51.660;7.082;2024-02-15T11:49:34;14.00;99.90
5086;DHT22;4715;51.660;7.082;2024-02-15T11:51:56;14.10;99.90
5086;DHT22;4715;51.660;7.082;2024-02-15T11:54:21;14.10;99.90
5086;DHT22;4715;51.660;7.082;2024-02-15T11:56:53;14.20;99.90
5086;DHT22;4715;51.660;7.082;2024-02-15T11:59:40;14.20;99.90
5086;DHT22;4715;51.660;7.082;2024-02-15T12:02:14;14.30;99.90
5086;DHT22;4715;51.660;7.082;2024-02-15T12:04:53;14.30;99.90
5086;DHT22;4715;51.660;7.082;2024-02-15T12:07:40;14.40;99.90
5086;DHT22;4715;51.660;7.082;2024-02-15T12:10:21;14.40;99.90
5086;DHT22;4715;51.660;7.082;2024-02-15T12:13:01;14.50;99.90
5086;DHT22;4715;51.660;7.082;2024-02-15T12:15:40;14.50;99.90
5086;DHT22;4715;51.660;7.082;2024-02-15T12:18:19;14.60;99.90
5086;DHT22;4715;51.660;7.082;2024-02-15T12:20:59;14.60;99.90
5086;DHT22;4715;51.660;7.082;2024-02-15T12:23:22;14.70;99.90
5086;DHT22;4715;51.660;7.082;2024-02-15T12:25:52;14.70;99.90
5086;DHT22;4715;51.660;7.082;2024-02-15T12:28:14;14.70;99.90
5086;DHT22;4715;51.660;7.082;2024-02-15T12:30:39;14.80;99.90
5086;DHT22;4715;51.660;7.082;2024-02-15T12:33:09;14.80;99.90
5086;DHT22;4715;51.660;7.082;2024-02-15T12:35:32;14.80;99.90
5086;DHT22;4715;51.660;7.082;2024-02-15T12:38:01;14.90;99.90
5086;DHT22;4715;51.660;7.082;2024-02-15T12:40:24;14.90;99.90
5086;DHT22;4715;51.660;7.082;2024-02-15T12:42:55;15.00;99.90
5086;DHT22;4715;51.660;7.082;2024-02-15T12:45:19;15.00;99.90
5086;DHT22;4715;51.660;7.082;2024-02-15T12:47:41;15.10;99.90
5086;DHT22;4715;51.660;7.082;2024-02-15T12:50:13;15.10;99.90
5086;DHT22;4715;51.660;7.082;2024-02-15T12:52:36;15.20;99.90
5086;DHT22;4715;51.660;7.082;2024-02-15T12:55:10;15.20;99.90
5086;DHT22;4715;51.660;7.082;2024-02-15T12:57:31;15.20;99.90
5086;DHT22;4715;51.660;7.082;2024-02-15T12:59:54;15.20;99.90
5086;DHT22;4715;51.660;7.082;2024-02-15T13:02:17;15.20;99.90
5086;DHT22;4715;51.660;7.082;2024-02-15T13:04:38;15.20;99.90
5086;DHT22;4715;51.660;7.082;2024-02-15T13:07:00;15.20;99.90
5086;DHT22;4715;51.660;7.082;2024-02-15T13:09:22;15.20;99.90
5086;DHT22;4715;51.660;7.082;2024-02-15T13:11:45;15.20;99.90
5086;DHT22;4715;51.660;7.082;2024-02-15T13:14:07;15.30;99.90
5086;DHT22;4715;51.660;7.082;2024-02-15T13:16:32;15.20;99.90
5086;DHT22;4715;51.660;7.082;2024-02-15T13:18:55;15.30;99.90
5086;DHT22;4715;51.660;7.082;2024-02-15T13:21:18;15.30;99.90
5086;DHT22;4715;51.660;7.082;2024-02-15T13:23:41;15.40;99.90
5086;DHT22;4715;51.660;7.082;2024-02-15T13:26:04;15.40;99.90
5086;DHT22;4715;51.660;7.082;2024-02-15T13:28:28;15.40;99.90
5086;DHT22;4715;51.660;7.082;2024-02-15T13:30:51;15.50;99.90
5086;DHT22;4715;51.660;7.082;2024-02-15T13:33:18;15.50;99.90
5086;DHT22;4715;51.660;7.082;2024-02-15T13:35:44;15.60;99.90
5086;DHT22;4715;51.660;7.082;2024-02-15T13:38:05;15.70;99.90
5086;DHT22;4715;51.660;7.082;2024-02-15T13:40:35;15.70;99.90
5086;DHT22;4715;51.660;7.082;2024-02-15T13:42:58;15.80;99.90
5086;DHT22;4715;51.660;7.082;2024-02-15T13:45:22;15.90;99.90
5086;DHT22;4715;51.660;7.082;2024-02-15T13:47:45;16.00;99.90
5086;DHT22;4715;51.660;7.082;2024-02-15T13:50:09;16.00;99.90
5086;DHT22;4715;51.660;7.082;2024-02-15T13:52:35;16.10;99.90
5086;DHT22;4715;51.660;7.082;2024-02-15T13:54:56;16.10;99.90
5086;DHT22;4715;51.660;7.082;2024-02-15T13:57:18;16.10;99.90
5086;DHT22;4715;51.660;7.082;2024-02-15T13:59:45;16.10;99.90
5086;DHT22;4715;51.660;7.082;2024-02-15T14:02:06;16.10;99.90
5086;DHT22;4715;51.660;7.082;2024-02-15T14:04:36;16.20;99.90
5086;DHT22;4715;51.660;7.082;2024-02-15T14:07:00;16.20;99.90
5086;DHT22;4715;51.660;7.082;2024-02-15T14:09:25;16.20;99.90
5086;DHT22;4715;51.660;7.082;2024-02-15T14:11:47;16.20;99.90
5086;DHT22;4715;51.660;7.082;2024-02-15T14:14:09;16.20;99.90
5086;DHT22;4715;51.660;7.082;2024-02-15T14:16:34;16.20;99.90
5086;DHT22;4715;51.660;7.082;2024-02-15T14:18:56;16.20;99.90
5086;DHT22;4715;51.660;7.082;2024-02-15T14:21:18;16.20;99.90
5086;DHT22;4715;51.660;7.082;2024-02-15T14:23:42;16.20;99.90
5086;DHT22;4715;51.660;7.082;2024-02-15T14:26:04;16.20;99.90
5086;DHT22;4715;51.660;7.082;2024-02-15T14:28:27;16.20;99.90
5086;DHT22;4715;51.660;7.082;2024-02-15T14:30:49;16.20;99.90
5086;DHT22;4715;51.660;7.082;2024-02-15T14:33:29;16.20;99.90
5086;DHT22;4715;51.660;7.082;2024-02-15T14:35:51;16.10;99.90
5086;DHT22;4715;51.660;7.082;2024-02-15T14:38:14;16.10;99.90
5086;DHT22;4715;51.660;7.082;2024-02-15T14:40:43;16.10;99.90
5086;DHT22;4715;51.660;7.082;2024-02-15T14:43:06;16.10;99.90
5086;DHT22;4715;51.660;7.082;2024-02-15T14:45:29;16.10;99.90
5086;DHT22;4715;51.660;7.082;2024-02-15T14:47:52;16.10;99.90
5086;DHT22;4715;51.660;7.082;2024-02-15T14:50:14;16.20;99.90
5086;DHT22;4715;51.660;7.082;2024-02-15T14:52:36;16.10;99.90
5086;DHT22;4715;51.660;7.082;2024-02-15T14:54:59;16.20;99.90
5086;DHT22;4715;51.660;7.082;2024-02-15T14:57:26;16.20;99.90
5086;DHT22;4715;51.660;7.082;2024-02-15T14:59:48;16.20;99.90
5086;DHT22;4715;51.660;7.082;2024-02-15T15:02:10;16.30;99.90
5086;DHT22;4715;51.660;7.082;2024-02-15T15:04:32;16.40;99.90
5086;DHT22;4715;51.660;7.082;2024-02-15T15:07:07;16.50;99.90
5086;DHT22;4715;51.660;7.082;2024-02-15T15:09:52;16.50;99.90
5086;DHT22;4715;51.660;7.082;2024-02-15T15:12:35;16.60;99.90
5086;DHT22;4715;51.660;7.082;2024-02-15T15:15:02;16.80;99.90
5086;DHT22;4715;51.660;7.082;2024-02-15T15:17:25;17.00;99.90
5086;DHT22;4715;51.660;7.082;2024-02-15T15:19:49;17.10;99.90
5086;DHT22;4715;51.660;7.082;2024-02-15T15:22:11;17.30;99.90
5086;DHT22;4715;51.660;7.082;2024-02-15T15:24:40;17.40;99.90
5086;DHT22;4715;51.660;7.082;2024-02-15T15:27:03;17.50;99.90
5086;DHT22;4715;51.660;7.082;2024-02-15T15:29:27;17.50;99.90
5086;DHT22;4715;51.660;7.082;2024-02-15T15:31:52;17.40;99.90
5086;DHT22;4715;51.660;7.082;2024-02-15T15:34:14;17.30;99.90
5086;DHT22;4715;51.660;7.082;2024-02-15T15:36:37;17.10;99.90
5086;DHT22;4715;51.660;7.082;2024-02-15T15:38:59;17.00;99.90
5086;DHT22;4715;51.660;7.082;2024-02-15T15:41:21;16.80;99.90
5086;DHT22;4715;51.660;7.082;2024-02-15T15:43:43;16.70;99.90
5086;DHT22;4715;51.660;7.082;2024-02-15T15:46:13;16.60;99.90